Dayton, Ohio
Current Conditions -  °F | °C
As of 4:58 PM on Wednesday 26 Nov 2014 (Local Time) from KFFO Reporting Station
Overcast Overcast  
Wind Chill: 34°   Ceiling: 2500
Heat Index: 34°   Visibility: 10mi
Dew Point: 25°   Wind: 3mph
Humidity: 70%   Direction: 320°NW
Pressure: 30.05"   Gusts: NA
Location:  39.76°N, 84.19°W
Report Text: KFFO 262158Z 32003KT 10SM OVC025 01/M04 A3005 RMK AO2A SLP188 T00091041
Loading
Personal Weather Stations






























Interactive Weather Map New forecast layout! Learn more

10-Day Weather Forecast

Advertisements
Track Severe Weather on mobile